CDT,Max TemperatureF,Mean TemperatureF,Min TemperatureF,Max Dew PointF,MeanDew PointF,Min DewpointF,Max Humidity, Mean Humidity, Min Humidity, Max Sea Level PressureIn, Mean Sea Level PressureIn, Min Sea Level PressureIn, Max VisibilityMiles, Mean VisibilityMiles, Min VisibilityMiles, Max Wind SpeedMPH, Mean Wind SpeedMPH, Max Gust SpeedMPH,PrecipitationIn, CloudCover, Events, WindDirDegrees
2013-8-1,85,73,60,66,62,57,100,70,40,30.07,30.03,29.91,10,6,0,12,5,16,T,1,Fog,258
2013-8-2,86,75,63,66,64,60,90,71,51,29.99,29.91,29.86,10,10,10,20,6,25,0.00,1,,291
2013-8-3,81,71,61,62,57,52,93,65,36,30.17,30.08,29.99,10,10,10,10,6,14,0.00,1,,13
2013-8-4,79,67,55,59,55,52,84,64,43,30.19,30.14,30.07,10,10,10,13,7,21,0.00,0,,102
2013-8-5,81,72,62,70,66,58,97,83,69,30.05,29.92,29.81,10,10,7,15,5,20,0.00,5,,171
2013-8-6,89,77,65,73,69,64,100,78,55,29.90,29.84,29.78,10,6,0,23,6,32,0.73,5,Fog-Rain-Thunderstorm,193
2013-8-7,84,73,64,72,66,61,100,81,54,29.98,29.86,29.78,10,9,2,17,7,20,0.23,2,Rain-Thunderstorm,350
2013-8-8,80,69,57,64,61,57,93,72,51,30.01,29.99,29.96,10,10,6,10,4,14,0.00,0,,33
2013-8-9,82,72,62,67,64,59,100,79,58,30.11,30.03,29.99,10,10,6,14,4,17,0.00,1,,336
2013-8-10,81,69,57,60,56,52,87,65,42,30.20,30.15,30.11,10,10,10,7,5,9,0.00,0,,21
2013-8-11,84,72,60,66,61,57,90,69,48,30.13,30.08,30.00,10,10,10,14,7,17,0.00,0,,197
2013-8-12,83,72,60,68,62,56,87,67,47,30.03,29.99,29.95,10,10,10,15,7,20,T,2,Rain,338
2013-8-13,77,67,56,59,55,51,87,68,49,30.17,30.09,30.01,10,10,10,13,7,16,0.00,0,,25
2013-8-14,76,62,47,54,49,46,93,66,38,30.23,30.18,30.14,10,10,8,8,2,,0.00,1,,154
2013-8-15,73,63,52,55,53,49,80,65,49,30.17,30.13,30.09,10,10,10,12,3,16,0.00,5,,164
2013-8-16,79,64,49,57,53,50,96,68,39,30.19,30.17,30.14,10,10,5,13,5,22,0.00,1,,75
2013-8-17,82,66,49,58,54,50,100,68,36,30.22,30.18,30.13,10,8,0,13,5,,0.00,0,Fog,65
2013-8-18,80,66,51,60,55,51,100,70,39,30.20,30.14,30.08,10,10,5,12,3,15,0.00,0,,125
2013-8-19,85,72,58,66,61,57,93,70,47,30.10,30.06,30.00,10,9,4,14,7,18,0.00,0,,191
2013-8-20,87,75,63,67,64,59,90,70,50,30.05,30.01,29.96,10,10,9,16,9,24,0.00,2,,185
2013-8-21,89,77,65,68,65,63,87,67,47,30.04,30.00,29.96,10,10,10,16,9,21,0.00,1,,202
2013-8-22,81,75,68,69,67,65,90,76,62,30.10,30.05,30.00,10,10,7,13,6,16,T,2,,157
2013-8-23,87,75,63,70,66,63,100,76,51,30.13,30.09,30.03,10,7,0,12,7,15,0.00,3,Fog,108
2013-8-24,91,80,68,72,68,65,90,71,52,30.17,30.12,30.08,10,10,9,17,9,23,0.00,0,,158
2013-8-25,91,79,67,70,65,60,87,64,41,30.20,30.14,30.09,10,10,8,17,10,26,0.00,0,,183
2013-8-26,94,81,67,71,67,62,87,66,44,30.13,30.06,29.98,10,10,6,14,8,18,0.00,0,,208
2013-8-27,96,85,74,70,67,63,82,59,36,29.98,29.93,29.86,10,10,10,21,11,29,0.00,0,,225
2013-8-28,98,86,73,72,66,63,82,58,33,29.98,29.95,29.92,10,10,10,14,7,18,0.00,0,,271
2013-8-29,95,81,67,71,68,64,87,64,41,30.03,29.97,29.91,10,10,9,13,3,16,0.00,1,,186
2013-8-30,101,87,72,73,69,58,87,56,24,29.92,29.83,29.76,10,10,10,12,6,14,0.00,0,,226
2013-8-31,87,79,71,73,71,68,100,79,57,29.84,29.80,29.75,10,9,2,12,5,14,0.00,2,,346